Time;durP1;ratioP1;P1;durP2;ratioP2;P2;SDS_P1;SDS_P2;PMS_P1;PMS_P2;Temp;Humidity;BMP_temperature;BMP_pressure;BME280_temperature;BME280_humidity;BME280_pressure;Samples;Min_cycle;Max_cycle;Signal;HPM_P1;HPM_P2
2022/04/09 00:01:22;;;;;;;26.63;10.10;;;;;;;;;;5003961;28;20702;-77
2022/04/09 00:03:49;;;;;;;24.43;10.87;;;;;;;;;;5001950;28;20287;-77
2022/04/09 00:06:18;;;;;;;24.57;11.23;;;;;;;;;;4999939;28;20209;-77
2022/04/09 00:08:45;;;;;;;31.07;10.47;;;;;;;;;;5000651;28;20712;-78
2022/04/09 00:11:13;;;;;;;20.93;10.13;;;;;;;;;;5007814;28;20232;-77
2022/04/09 00:13:41;;;;;;;24.43;10.53;;;;;;;;;;5006775;28;20549;-77
2022/04/09 00:16:08;;;;;;;23.50;10.17;;;;;;;;;;5004894;28;20213;-78
2022/04/09 00:18:35;;;;;;;23.30;9.97;;;;;;;;;;5007581;28;20201;-78
2022/04/09 00:21:03;;;;;;;22.87;10.27;;;;;;;;;;5000623;28;20828;-78
2022/04/09 00:23:31;;;;;;;20.37;9.33;;;;;;;;;;5007670;28;20208;-78
2022/04/09 00:25:58;;;;;;;19.90;9.40;;;;;;;;;;5002507;28;20215;-77
2022/04/09 00:28:26;;;;;;;30.10;10.33;;;;;;;;;;5004737;28;20287;-78
2022/04/09 00:30:53;;;;;;;20.07;8.83;;;;;;;;;;5003941;28;20683;-77
2022/04/09 00:33:20;;;;;;;22.10;10.60;;;;;;;;;;5012631;28;20243;-78
2022/04/09 00:35:48;;;;;;;23.73;8.60;;;;;;;;;;5009950;28;20277;-77
2022/04/09 00:38:15;;;;;;;19.33;8.47;;;;;;;;;;5007882;28;20886;-77
2022/04/09 00:40:43;;;;;;;16.37;7.27;;;;;;;;;;5015006;23;20327;-78
2022/04/09 00:43:11;;;;;;;14.43;6.97;;;;;;;;;;5000565;28;20254;-78
2022/04/09 00:45:39;;;;;;;15.00;6.20;;;;;;;;;;4994951;28;20207;-79
2022/04/09 00:48:08;;;;;;;13.73;5.53;;;;;;;;;;5006711;28;20291;-78
2022/04/09 00:50:35;;;;;;;16.57;5.70;;;;;;;;;;5009173;28;20343;-78
2022/04/09 00:53:03;;;;;;;13.80;5.70;;;;;;;;;;5002971;28;20227;-78
2022/04/09 00:58:20;;;;;;;16.77;6.77;;;;;;;;;;5001541;28;20307;-78
2022/04/09 01:00:48;;;;;;;14.40;6.57;;;;;;;;;;5003834;28;20257;-77
2022/04/09 01:03:19;;;;;;;15.10;6.07;;;;;;;;;;5009546;28;20240;-77
2022/04/09 01:05:48;;;;;;;16.93;6.40;;;;;;;;;;5001321;28;20209;-78
2022/04/09 01:08:15;;;;;;;18.43;6.17;;;;;;;;;;5000638;28;20236;-78
2022/04/09 01:10:42;;;;;;;14.10;6.13;;;;;;;;;;5001358;28;20217;-78
2022/04/09 01:13:09;;;;;;;14.17;5.73;;;;;;;;;;5000825;28;20283;-78
2022/04/09 01:15:38;;;;;;;15.07;5.77;;;;;;;;;;5000320;28;20291;-79
2022/04/09 01:18:05;;;;;;;13.73;5.90;;;;;;;;;;5002045;28;20244;-79
2022/04/09 01:20:32;;;;;;;15.10;5.63;;;;;;;;;;5003747;28;20287;-79
2022/04/09 01:23:01;;;;;;;16.40;5.70;;;;;;;;;;5003149;28;20208;-79
2022/04/09 01:25:28;;;;;;;13.17;4.87;;;;;;;;;;5003678;28;20220;-76
2022/04/09 01:27:55;;;;;;;13.70;5.53;;;;;;;;;;4996685;28;20216;-79
2022/04/09 01:30:22;;;;;;;12.23;5.23;;;;;;;;;;5001352;28;20571;-79
2022/04/09 01:32:50;;;;;;;12.43;4.80;;;;;;;;;;5001732;28;20291;-77
2022/04/09 01:35:17;;;;;;;13.17;5.37;;;;;;;;;;5002556;28;20240;-77
2022/04/09 01:37:44;;;;;;;13.13;5.00;;;;;;;;;;5004758;28;20262;-78
2022/04/09 01:40:13;;;;;;;13.93;4.90;;;;;;;;;;5006091;28;20327;-78
2022/04/09 01:42:40;;;;;;;10.73;4.93;;;;;;;;;;4999918;28;20244;-78
2022/04/09 01:45:09;;;;;;;15.10;5.17;;;;;;;;;;5000809;28;20248;-78
2022/04/09 01:47:42;;;;;;;11.97;5.30;;;;;;;;;;4999341;28;20208;-78
2022/04/09 01:50:11;;;;;;;12.97;4.83;;;;;;;;;;5002124;28;20224;-77
2022/04/09 01:52:38;;;;;;;14.87;5.40;;;;;;;;;;5005105;28;20204;-78
2022/04/09 01:55:06;;;;;;;11.47;5.27;;;;;;;;;;5003801;28;20787;-78
2022/04/09 01:57:34;;;;;;;10.70;5.00;;;;;;;;;;5003079;28;20232;-77
2022/04/09 02:00:02;;;;;;;10.87;5.10;;;;;;;;;;5005939;28;20319;-77
2022/04/09 02:02:29;;;;;;;21.10;6.77;;;;;;;;;;5009002;28;20232;-78
2022/04/09 02:04:56;;;;;;;22.67;7.20;;;;;;;;;;5003583;28;20256;-77
2022/04/09 02:07:24;;;;;;;14.93;7.07;;;;;;;;;;5002449;28;20670;-77
2022/04/09 02:09:51;;;;;;;14.70;7.47;;;;;;;;;;5001599;28;20259;-78
2022/04/09 02:12:18;;;;;;;18.50;7.33;;;;;;;;;;5008990;28;20673;-77
2022/04/09 02:14:47;;;;;;;17.77;7.07;;;;;;;;;;5005915;28;20209;-77
2022/04/09 02:17:14;;;;;;;16.97;7.87;;;;;;;;;;5005362;28;20212;-77
2022/04/09 02:19:41;;;;;;;18.93;7.03;;;;;;;;;;5004422;28;20231;-78
2022/04/09 02:22:08;;;;;;;23.77;7.30;;;;;;;;;;5002940;28;20197;-77
2022/04/09 02:24:36;;;;;;;20.17;6.90;;;;;;;;;;5006295;28;20299;-78
2022/04/09 02:27:03;;;;;;;15.80;6.37;;;;;;;;;;5007147;28;20320;-77
2022/04/09 02:29:30;;;;;;;28.47;7.90;;;;;;;;;;5003148;28;20352;-78
2022/04/09 02:32:01;;;;;;;14.90;6.70;;;;;;;;;;5005486;28;20233;-77
2022/04/09 02:34:28;;;;;;;24.13;7.10;;;;;;;;;;5009442;28;20211;-78
2022/04/09 02:36:55;;;;;;;15.27;6.63;;;;;;;;;;5004559;28;20592;-77
2022/04/09 02:39:22;;;;;;;17.47;6.57;;;;;;;;;;5006732;28;20794;-77
2022/04/09 02:41:50;;;;;;;14.03;5.97;;;;;;;;;;5008886;28;20220;-77
2022/04/09 02:44:18;;;;;;;18.33;6.47;;;;;;;;;;5001392;28;20224;-78
2022/04/09 02:46:47;;;;;;;19.90;7.10;;;;;;;;;;4999360;28;20213;-76
2022/04/09 02:49:16;;;;;;;16.17;7.47;;;;;;;;;;5004360;28;20208;-77
2022/04/09 02:51:43;;;;;;;18.40;7.77;;;;;;;;;;5010131;28;20212;-77
2022/04/09 02:54:15;;;;;;;20.83;7.33;;;;;;;;;;5005936;28;20340;-77
2022/04/09 02:56:43;;;;;;;22.80;8.17;;;;;;;;;;5007048;28;20231;-76
2022/04/09 02:59:12;;;;;;;24.20;8.70;;;;;;;;;;5007492;28;20200;-77
2022/04/09 03:01:39;;;;;;;26.17;8.17;;;;;;;;;;5004212;28;20550;-78
2022/04/09 03:04:07;;;;;;;13.20;5.80;;;;;;;;;;5005889;28;20686;-77
2022/04/09 03:06:35;;;;;;;23.90;8.50;;;;;;;;;;5000936;28;20302;-77
2022/04/09 03:09:03;;;;;;;11.17;5.03;;;;;;;;;;5006704;28;20231;-77
2022/04/09 03:11:30;;;;;;;19.70;7.83;;;;;;;;;;5007453;28;20224;-78
2022/04/09 03:13:57;;;;;;;20.27;7.47;;;;;;;;;;5002831;28;20200;-78
2022/04/09 03:16:24;;;;;;;19.27;7.50;;;;;;;;;;4999750;28;20291;-79
2022/04/09 03:18:51;;;;;;;20.27;6.93;;;;;;;;;;5004250;28;20221;-78
2022/04/09 03:21:19;;;;;;;28.70;8.20;;;;;;;;;;5001169;28;20724;-77
2022/04/09 03:23:47;;;;;;;14.20;6.37;;;;;;;;;;4997450;28;20787;-78
2022/04/09 03:26:14;;;;;;;19.53;7.40;;;;;;;;;;5007048;28;20212;-78
2022/04/09 03:28:42;;;;;;;16.23;7.07;;;;;;;;;;5000938;28;20239;-78
2022/04/09 03:31:09;;;;;;;17.27;6.73;;;;;;;;;;5002339;28;20231;-78
2022/04/09 03:33:37;;;;;;;18.53;6.60;;;;;;;;;;5003060;28;20204;-78
2022/04/09 03:36:04;;;;;;;24.97;7.13;;;;;;;;;;5003107;28;20209;-78
2022/04/09 03:38:31;;;;;;;22.80;7.53;;;;;;;;;;5001909;28;20663;-77
2022/04/09 03:41:00;;;;;;;25.13;7.30;;;;;;;;;;5001423;28;20233;-77
2022/04/09 03:43:28;;;;;;;28.20;7.20;;;;;;;;;;5000654;28;20235;-77
2022/04/09 03:45:56;;;;;;;20.03;7.00;;;;;;;;;;4999389;28;20201;-78
2022/04/09 03:48:23;;;;;;;18.50;7.17;;;;;;;;;;5002876;28;20296;-77
2022/04/09 03:50:50;;;;;;;19.73;7.53;;;;;;;;;;5007749;28;20275;-78
2022/04/09 03:53:20;;;;;;;14.23;5.33;;;;;;;;;;5000947;28;20213;-77
2022/04/09 03:55:47;;;;;;;15.87;7.00;;;;;;;;;;5005016;28;20200;-78
2022/04/09 03:58:17;;;;;;;16.03;7.03;;;;;;;;;;5003107;28;20220;-78
2022/04/09 04:00:45;;;;;;;19.47;6.73;;;;;;;;;;5002809;28;20334;-78
2022/04/09 04:03:12;;;;;;;16.93;6.53;;;;;;;;;;5000328;28;20690;-78
2022/04/09 04:05:40;;;;;;;20.83;7.87;;;;;;;;;;5006253;28;20883;-78
2022/04/09 04:08:07;;;;;;;26.10;7.30;;;;;;;;;;4999614;28;20215;-78
2022/04/09 04:10:37;;;;;;;14.67;7.30;;;;;;;;;;5003645;28;20256;-78
2022/04/09 04:13:05;;;;;;;17.87;6.47;;;;;;;;;;5006596;28;20272;-77
2022/04/09 04:15:34;;;;;;;15.73;6.80;;;;;;;;;;5001845;28;20223;-78
2022/04/09 04:18:02;;;;;;;17.27;6.63;;;;;;;;;;5000316;28;20240;-78
2022/04/09 04:20:29;;;;;;;17.93;6.83;;;;;;;;;;5000844;28;20232;-78
2022/04/09 04:22:58;;;;;;;24.20;7.77;;;;;;;;;;5000348;28;20213;-78
2022/04/09 04:25:26;;;;;;;20.40;7.73;;;;;;;;;;5003075;28;20208;-78
2022/04/09 04:27:54;;;;;;;21.27;8.03;;;;;;;;;;5003272;28;20209;-77
2022/04/09 04:30:21;;;;;;;21.37;8.07;;;;;;;;;;5001360;28;20311;-78
2022/04/09 04:32:49;;;;;;;21.77;8.47;;;;;;;;;;5005172;28;20244;-78
2022/04/09 04:35:17;;;;;;;25.10;9.20;;;;;;;;;;5008493;28;20231;-78
2022/04/09 04:37:45;;;;;;;16.13;7.50;;;;;;;;;;5000757;28;20299;-78
2022/04/09 04:40:12;;;;;;;20.23;7.33;;;;;;;;;;5000482;28;20295;-78
2022/04/09 04:42:39;;;;;;;21.97;8.20;;;;;;;;;;5004335;28;20252;-78
2022/04/09 04:45:07;;;;;;;24.80;8.67;;;;;;;;;;5000753;28;20292;-78
2022/04/09 04:47:42;;;;;;;27.80;8.27;;;;;;;;;;5001898;28;20215;-78
2022/04/09 04:50:11;;;;;;;14.27;5.97;;;;;;;;;;5002329;28;20227;-77
2022/04/09 04:52:39;;;;;;;24.33;7.87;;;;;;;;;;5001159;28;20252;-78
2022/04/09 04:55:06;;;;;;;16.40;6.17;;;;;;;;;;5003658;28;20211;-78
2022/04/09 04:57:40;;;;;;;22.07;7.43;;;;;;;;;;5004748;28;20204;-78
2022/04/09 05:00:08;;;;;;;24.50;7.53;;;;;;;;;;5002630;28;20792;-78
2022/04/09 05:02:36;;;;;;;28.77;6.20;;;;;;;;;;5004939;28;20220;-77
2022/04/09 05:05:03;;;;;;;20.40;6.57;;;;;;;;;;5001053;28;20303;-79
2022/04/09 05:07:39;;;;;;;18.37;6.70;;;;;;;;;;5004178;28;20296;-78
2022/04/09 05:10:06;;;;;;;20.77;6.30;;;;;;;;;;5001138;28;20694;-78
2022/04/09 05:12:34;;;;;;;20.27;6.67;;;;;;;;;;5003636;28;20204;-79
2022/04/09 05:15:02;;;;;;;24.47;7.03;;;;;;;;;;5005789;28;20296;-79
2022/04/09 05:17:29;;;;;;;16.27;6.70;;;;;;;;;;5006856;28;20221;-78
2022/04/09 05:19:56;;;;;;;19.40;6.53;;;;;;;;;;5008209;28;20255;-78
2022/04/09 05:22:25;;;;;;;16.43;5.93;;;;;;;;;;5007201;28;20247;-78
2022/04/09 05:24:54;;;;;;;22.33;6.23;;;;;;;;;;5010215;28;21153;-78
2022/04/09 05:27:22;;;;;;;25.57;6.33;;;;;;;;;;5010048;28;20448;-78
2022/04/09 05:29:49;;;;;;;18.17;6.23;;;;;;;;;;5010867;28;20228;-78
2022/04/09 05:32:16;;;;;;;23.40;5.70;;;;;;;;;;5010878;28;20651;-78
2022/04/09 05:34:43;;;;;;;16.50;5.70;;;;;;;;;;5006342;28;20216;-79
2022/04/09 05:37:11;;;;;;;19.40;6.17;;;;;;;;;;5006013;28;20236;-79
2022/04/09 05:39:38;;;;;;;20.33;5.80;;;;;;;;;;5009133;28;20623;-79
2022/04/09 05:42:07;;;;;;;19.80;5.93;;;;;;;;;;5006196;28;20225;-79
2022/04/09 05:44:34;;;;;;;12.33;4.60;;;;;;;;;;5005132;28;20267;-78
2022/04/09 05:47:01;;;;;;;13.93;4.50;;;;;;;;;;5004538;28;20236;-77
2022/04/09 05:49:29;;;;;;;13.03;5.13;;;;;;;;;;5008658;28;20232;-79
2022/04/09 05:51:57;;;;;;;15.67;4.80;;;;;;;;;;5012904;28;20208;-77
2022/04/09 05:54:24;;;;;;;13.17;3.50;;;;;;;;;;5007689;28;20212;-78
2022/04/09 05:56:51;;;;;;;13.67;3.90;;;;;;;;;;5007279;28;20207;-77
2022/04/09 05:59:20;;;;;;;14.07;4.17;;;;;;;;;;5009047;28;20636;-77
2022/04/09 06:01:47;;;;;;;10.97;4.03;;;;;;;;;;5007433;28;20682;-77
2022/04/09 06:04:19;;;;;;;13.60;4.10;;;;;;;;;;5011956;28;20205;-78
2022/04/09 06:06:46;;;;;;;10.60;3.60;;;;;;;;;;5009483;28;20701;-77
2022/04/09 06:09:13;;;;;;;11.57;4.00;;;;;;;;;;5018434;28;20209;-78
2022/04/09 06:11:41;;;;;;;8.37;3.43;;;;;;;;;;5001451;28;20284;-76
2022/04/09 06:14:09;;;;;;;14.73;4.30;;;;;;;;;;5004515;28;20196;-78
2022/04/09 06:16:38;;;;;;;9.93;3.97;;;;;;;;;;5005817;28;20388;-78
2022/04/09 06:19:06;;;;;;;14.40;4.40;;;;;;;;;;5006029;28;20304;-78
2022/04/09 06:21:33;;;;;;;13.83;4.30;;;;;;;;;;5003658;28;20772;-78
2022/04/09 06:24:01;;;;;;;13.70;4.13;;;;;;;;;;5011549;28;20330;-78
2022/04/09 06:26:28;;;;;;;16.43;4.80;;;;;;;;;;5004985;28;20208;-78
2022/04/09 06:28:56;;;;;;;15.57;4.63;;;;;;;;;;5006388;28;20303;-78
2022/04/09 06:31:23;;;;;;;20.27;4.47;;;;;;;;;;4999613;28;20316;-78
2022/04/09 06:33:53;;;;;;;13.17;4.67;;;;;;;;;;5004887;28;20205;-77
2022/04/09 06:36:20;;;;;;;17.10;4.90;;;;;;;;;;5003583;28;20291;-78
2022/04/09 06:38:47;;;;;;;13.50;4.80;;;;;;;;;;5004681;28;20227;-79
2022/04/09 06:41:18;;;;;;;15.20;5.10;;;;;;;;;;5008791;28;20236;-79
2022/04/09 06:43:46;;;;;;;14.43;4.30;;;;;;;;;;5002395;28;20213;-78
2022/04/09 06:46:14;;;;;;;9.47;4.00;;;;;;;;;;5007957;28;20263;-78
2022/04/09 06:48:41;;;;;;;14.67;4.37;;;;;;;;;;5007648;28;20195;-79
2022/04/09 06:51:10;;;;;;;17.33;4.27;;;;;;;;;;5006651;28;20674;-79
2022/04/09 06:53:38;;;;;;;14.90;4.37;;;;;;;;;;5009265;28;20212;-78
2022/04/09 06:56:06;;;;;;;16.43;4.70;;;;;;;;;;5007958;28;20208;-78
2022/04/09 06:59:00;;;;;;;19.63;5.30;;;;;;;;;;5006663;28;20265;-77
2022/04/09 07:01:28;;;;;;;14.70;4.97;;;;;;;;;;5012354;28;20228;-79
2022/04/09 07:03:56;;;;;;;14.97;4.60;;;;;;;;;;5008843;28;20221;-79
2022/04/09 07:06:24;;;;;;;15.30;4.60;;;;;;;;;;5020467;28;20201;-79
2022/04/09 07:08:51;;;;;;;15.73;5.23;;;;;;;;;;5017917;28;20212;-79
2022/04/09 07:11:19;;;;;;;20.20;4.73;;;;;;;;;;5013731;28;20259;-79
2022/04/09 07:13:46;;;;;;;20.50;4.40;;;;;;;;;;5012984;28;20224;-79
2022/04/09 07:16:13;;;;;;;12.93;3.53;;;;;;;;;;5009931;28;20200;-78
2022/04/09 07:18:40;;;;;;;11.17;3.83;;;;;;;;;;4997417;28;20228;-80
2022/04/09 07:21:08;;;;;;;13.40;3.07;;;;;;;;;;5005425;28;20244;-79
2022/04/09 07:23:36;;;;;;;14.27;3.50;;;;;;;;;;5000196;28;22305;-79
2022/04/09 07:32:10;;;;;;;9.70;2.90;;;;;;;;;;5008191;28;20191;-80
2022/04/09 07:34:38;;;;;;;17.60;3.50;;;;;;;;;;5005067;28;20754;-77
2022/04/09 07:37:08;;;;;;;13.13;3.03;;;;;;;;;;5009896;28;20208;-79
2022/04/09 07:39:38;;;;;;;18.03;3.97;;;;;;;;;;5016814;28;20240;-78
2022/04/09 07:42:05;;;;;;;9.17;3.23;;;;;;;;;;5006675;28;20706;-79
2022/04/09 07:47:22;;;;;;;13.90;3.43;;;;;;;;;;4998576;28;20670;-79
2022/04/09 07:49:49;;;;;;;11.07;2.97;;;;;;;;;;4999155;28;20804;-79
2022/04/09 07:52:17;;;;;;;19.13;3.97;;;;;;;;;;5000996;28;20204;-79
2022/04/09 07:54:45;;;;;;;12.90;3.73;;;;;;;;;;5002165;28;20235;-78
2022/04/09 07:57:12;;;;;;;16.13;3.27;;;;;;;;;;5002274;28;20204;-78
2022/04/09 07:59:39;;;;;;;8.70;3.10;;;;;;;;;;4995968;28;20228;-78
2022/04/09 08:02:07;;;;;;;16.47;3.30;;;;;;;;;;4997679;28;20255;-79
2022/04/09 08:04:34;;;;;;;12.13;2.80;;;;;;;;;;4998751;28;20209;-77
2022/04/09 08:07:01;;;;;;;16.40;3.27;;;;;;;;;;4996134;28;20258;-78
2022/04/09 08:09:29;;;;;;;12.07;3.17;;;;;;;;;;5003202;28;20320;-77
2022/04/09 08:11:57;;;;;;;15.60;3.33;;;;;;;;;;5007052;28;20953;-78
2022/04/09 08:14:25;;;;;;;14.27;2.97;;;;;;;;;;5008691;28;20272;-79
2022/04/09 08:16:52;;;;;;;13.80;2.63;;;;;;;;;;5003985;28;20205;-78
2022/04/09 08:19:20;;;;;;;12.27;2.77;;;;;;;;;;5005356;28;20227;-79
2022/04/09 08:21:48;;;;;;;12.20;2.57;;;;;;;;;;5005729;28;20290;-79
2022/04/09 08:24:15;;;;;;;6.93;2.60;;;;;;;;;;5009067;28;20216;-79
2022/04/09 08:26:42;;;;;;;15.63;2.60;;;;;;;;;;5013302;28;20204;-79
2022/04/09 08:29:15;;;;;;;11.53;2.40;;;;;;;;;;5012728;28;20208;-78
2022/04/09 08:31:45;;;;;;;16.10;2.87;;;;;;;;;;5006261;28;20196;-77
2022/04/09 08:34:12;;;;;;;7.20;2.37;;;;;;;;;;5005848;28;20258;-77
2022/04/09 08:36:39;;;;;;;12.70;2.73;;;;;;;;;;5002241;28;20200;-77
2022/04/09 08:39:07;;;;;;;15.43;1.90;;;;;;;;;;5011482;28;20228;-77
2022/04/09 08:41:36;;;;;;;13.47;2.50;;;;;;;;;;5003537;28;20307;-78
2022/04/09 08:44:03;;;;;;;12.40;2.40;;;;;;;;;;5004743;28;20730;-78
2022/04/09 08:46:33;;;;;;;10.10;2.30;;;;;;;;;;5007338;28;20231;-77
2022/04/09 08:49:00;;;;;;;14.33;2.77;;;;;;;;;;5008417;28;20266;-79
2022/04/09 08:51:27;;;;;;;21.43;2.43;;;;;;;;;;5006614;28;20690;-79
2022/04/09 08:53:56;;;;;;;10.43;2.37;;;;;;;;;;5012676;28;20242;-79
2022/04/09 08:56:23;;;;;;;8.33;1.93;;;;;;;;;;5009936;28;20299;-79
2022/04/09 08:58:50;;;;;;;15.23;2.40;;;;;;;;;;5010962;28;20660;-78
2022/04/09 09:01:17;;;;;;;16.73;1.90;;;;;;;;;;5003420;28;20231;-77
2022/04/09 09:03:46;;;;;;;9.70;1.70;;;;;;;;;;5006660;28;20220;-78
2022/04/09 09:06:27;;;;;;;12.70;1.87;;;;;;;;;;5010775;28;20219;-77
2022/04/09 09:08:55;;;;;;;13.00;1.97;;;;;;;;;;5020860;28;20310;-78
2022/04/09 09:11:23;;;;;;;8.03;1.80;;;;;;;;;;5021680;28;20232;-79
2022/04/09 09:13:51;;;;;;;14.03;2.37;;;;;;;;;;5010206;28;20218;-78
2022/04/09 09:16:26;;;;;;;8.47;1.80;;;;;;;;;;5016692;28;20239;-79
2022/04/09 09:18:55;;;;;;;9.23;2.00;;;;;;;;;;5011817;28;20205;-78
2022/04/09 09:21:26;;;;;;;9.70;2.17;;;;;;;;;;5013726;28;20586;-78
2022/04/09 09:23:54;;;;;;;8.07;1.37;;;;;;;;;;5013916;28;20252;-80
2022/04/09 09:26:22;;;;;;;9.60;2.10;;;;;;;;;;5005296;28;20247;-79
2022/04/09 09:28:55;;;;;;;9.43;1.90;;;;;;;;;;5006975;28;20676;-79
2022/04/09 09:31:39;;;;;;;11.13;1.93;;;;;;;;;;5003838;28;20227;-79
2022/04/09 09:34:10;;;;;;;8.80;1.83;;;;;;;;;;5003079;28;20647;-78
2022/04/09 09:36:40;;;;;;;14.63;2.47;;;;;;;;;;5002517;28;20205;-78
2022/04/09 09:39:08;;;;;;;12.90;2.10;;;;;;;;;;5003257;28;20209;-77
2022/04/09 09:41:35;;;;;;;13.30;1.93;;;;;;;;;;5004339;28;20209;-78
2022/04/09 09:44:07;;;;;;;10.30;1.83;;;;;;;;;;4999533;28;20225;-78
2022/04/09 09:46:35;;;;;;;9.17;2.03;;;;;;;;;;5006830;28;20359;-78
2022/04/09 09:49:02;;;;;;;8.93;1.47;;;;;;;;;;5003182;28;20215;-78
2022/04/09 09:51:30;;;;;;;16.03;2.20;;;;;;;;;;4998573;28;20263;-78
2022/04/09 09:54:04;;;;;;;12.83;2.27;;;;;;;;;;4997034;28;20276;-79
2022/04/09 09:56:36;;;;;;;11.27;1.90;;;;;;;;;;5000712;28;20215;-78
2022/04/09 09:59:05;;;;;;;13.00;2.00;;;;;;;;;;5001597;28;20236;-79
2022/04/09 10:01:32;;;;;;;12.97;1.87;;;;;;;;;;5005059;28;20205;-78
2022/04/09 10:04:00;;;;;;;12.47;2.73;;;;;;;;;;5004398;28;20312;-80
2022/04/09 10:06:29;;;;;;;8.63;1.70;;;;;;;;;;5001698;28;20628;-78
2022/04/09 10:08:59;;;;;;;6.13;1.50;;;;;;;;;;4999908;28;20226;-80
2022/04/09 10:11:27;;;;;;;8.97;1.63;;;;;;;;;;4998318;28;20245;-79
2022/04/09 10:13:56;;;;;;;10.63;2.07;;;;;;;;;;5002664;28;20204;-79
2022/04/09 10:16:26;;;;;;;6.47;1.70;;;;;;;;;;4999897;28;20274;-79
2022/04/09 10:18:57;;;;;;;8.33;1.70;;;;;;;;;;5001863;28;20201;-79
2022/04/09 10:21:24;;;;;;;8.47;1.80;;;;;;;;;;4999033;28;20316;-79
2022/04/09 10:23:54;;;;;;;10.67;1.97;;;;;;;;;;5006357;28;20220;-79
2022/04/09 10:26:22;;;;;;;10.80;1.73;;;;;;;;;;5010837;28;20219;-79
2022/04/09 10:28:51;;;;;;;14.63;1.90;;;;;;;;;;5009998;28;20204;-78
2022/04/09 10:31:35;;;;;;;11.37;1.73;;;;;;;;;;5004338;28;21655;-79
2022/04/09 10:34:04;;;;;;;6.03;1.07;;;;;;;;;;4995880;28;20205;-77
2022/04/09 10:36:51;;;;;;;4.27;1.03;;;;;;;;;;4996948;28;20207;-78
2022/04/09 10:42:05;;;;;;;2.93;1.30;;;;;;;;;;5136280;27;20304;-77
2022/04/09 10:44:35;;;;;;;5.13;1.27;;;;;;;;;;5120310;27;20288;-78
2022/04/09 10:47:03;;;;;;;5.83;1.47;;;;;;;;;;5117586;27;20312;-78
2022/04/09 10:49:30;;;;;;;5.43;1.80;;;;;;;;;;5108821;27;20234;-78
2022/04/09 10:52:16;;;;;;;5.90;1.87;;;;;;;;;;5108802;27;21012;-77
2022/04/09 10:54:58;;;;;;;6.90;1.90;;;;;;;;;;5113293;27;20422;-78
2022/04/09 10:57:27;;;;;;;3.63;1.60;;;;;;;;;;5109341;27;20207;-77
2022/04/09 10:59:58;;;;;;;3.40;1.70;;;;;;;;;;5108944;27;20315;-77
2022/04/09 11:02:26;;;;;;;5.13;1.90;;;;;;;;;;5110684;27;20242;-77
2022/04/09 11:04:53;;;;;;;25.93;11.83;;;;;;;;;;5116803;27;20205;-78
2022/04/09 11:07:21;;;;;;;5.97;2.40;;;;;;;;;;5118587;27;20196;-77
2022/04/09 11:09:50;;;;;;;7.57;2.57;;;;;;;;;;5120101;27;20224;-78
2022/04/09 11:12:19;;;;;;;6.77;2.07;;;;;;;;;;5119223;27;20294;-77
2022/04/09 11:14:49;;;;;;;6.40;2.17;;;;;;;;;;5115748;27;20659;-78
2022/04/09 11:17:17;;;;;;;5.83;2.27;;;;;;;;;;5119134;27;20697;-78
2022/04/09 11:19:44;;;;;;;17.13;8.27;;;;;;;;;;5117247;27;20225;-77
2022/04/09 11:22:11;;;;;;;12.57;6.77;;;;;;;;;;5122910;27;20192;-78
2022/04/09 11:24:39;;;;;;;18.67;8.87;;;;;;;;;;5123127;27;20789;-77
2022/04/09 11:27:07;;;;;;;13.43;7.23;;;;;;;;;;5125098;27;20330;-77
2022/04/09 11:29:35;;;;;;;14.90;7.73;;;;;;;;;;5132573;27;20251;-77
2022/04/09 11:32:04;;;;;;;4.93;2.87;;;;;;;;;;5133875;27;20192;-77
2022/04/09 11:34:46;;;;;;;12.13;7.30;;;;;;;;;;5122903;27;20228;-79
2022/04/09 11:37:13;;;;;;;7.87;3.70;;;;;;;;;;5111749;27;20885;-80
2022/04/09 11:39:41;;;;;;;13.37;5.33;;;;;;;;;;5115489;27;20296;-78
2022/04/09 11:42:08;;;;;;;5.93;2.47;;;;;;;;;;5120560;27;20225;-79
2022/04/09 11:44:38;;;;;;;8.70;2.57;;;;;;;;;;5113039;27;20320;-79
2022/04/09 11:47:10;;;;;;;4.83;2.50;;;;;;;;;;5113508;27;20652;-79
2022/04/09 11:49:38;;;;;;;8.60;2.30;;;;;;;;;;5113268;27;21604;-80
2022/04/09 11:52:05;;;;;;;7.93;2.17;;;;;;;;;;5108009;27;20197;-78
2022/04/09 11:54:33;;;;;;;18.60;8.43;;;;;;;;;;5106300;27;20265;-79
2022/04/09 11:57:01;;;;;;;12.50;5.37;;;;;;;;;;5103322;27;20216;-79
2022/04/09 11:59:29;;;;;;;11.93;4.60;;;;;;;;;;5103641;27;20261;-79
2022/04/09 12:01:56;;;;;;;10.60;2.33;;;;;;;;;;5099326;27;20268;-79
2022/04/09 12:04:25;;;;;;;9.10;2.47;;;;;;;;;;5095740;27;20691;-79
2022/04/09 12:06:53;;;;;;;11.80;4.63;;;;;;;;;;5111069;27;20279;-78
2022/04/09 12:09:21;;;;;;;8.23;2.50;;;;;;;;;;5103011;27;20757;-78
2022/04/09 12:11:53;;;;;;;10.60;3.03;;;;;;;;;;5108405;27;20194;-79
2022/04/09 12:14:21;;;;;;;6.83;2.23;;;;;;;;;;5100381;27;20212;-79
2022/04/09 12:16:48;;;;;;;6.30;1.90;;;;;;;;;;5093285;28;20209;-79
2022/04/09 12:19:16;;;;;;;7.53;2.47;;;;;;;;;;5103897;28;20205;-79
2022/04/09 12:21:44;;;;;;;8.97;2.00;;;;;;;;;;5103236;27;20213;-79
2022/04/09 12:24:12;;;;;;;8.67;2.67;;;;;;;;;;5099908;28;20212;-78
2022/04/09 12:26:40;;;;;;;6.60;2.40;;;;;;;;;;5098966;28;20197;-78
2022/04/09 12:29:12;;;;;;;5.90;2.30;;;;;;;;;;5099120;28;21266;-78
2022/04/09 12:31:39;;;;;;;6.43;1.67;;;;;;;;;;5091348;28;20205;-78
2022/04/09 12:34:07;;;;;;;6.33;2.23;;;;;;;;;;5104654;28;20201;-78
2022/04/09 12:36:36;;;;;;;14.33;1.90;;;;;;;;;;5100564;27;20227;-76
2022/04/09 12:41:58;;;;;;;3.97;2.03;;;;;;;;;;5033109;28;20600;-78
2022/04/09 12:44:25;;;;;;;6.33;1.30;;;;;;;;;;5033883;28;20214;-77
2022/04/09 12:46:53;;;;;;;2.53;1.50;;;;;;;;;;5038047;28;20218;-77
2022/04/09 12:49:21;;;;;;;2.90;1.43;;;;;;;;;;5036480;28;20656;-77
2022/04/09 12:51:48;;;;;;;2.17;1.60;;;;;;;;;;5036048;28;20669;-77
2022/04/09 12:54:17;;;;;;;4.00;1.83;;;;;;;;;;5038081;28;20287;-77
2022/04/09 12:56:44;;;;;;;4.47;2.20;;;;;;;;;;5051808;28;20227;-79
2022/04/09 12:59:11;;;;;;;4.43;2.93;;;;;;;;;;5055903;28;20245;-79
2022/04/09 13:01:39;;;;;;;7.63;4.57;;;;;;;;;;5045554;28;20219;-77
2022/04/09 13:04:07;;;;;;;4.93;2.33;;;;;;;;;;5037801;28;20207;-77
2022/04/09 13:06:35;;;;;;;3.60;2.20;;;;;;;;;;5040100;28;20196;-77
2022/04/09 13:09:02;;;;;;;5.63;2.57;;;;;;;;;;5047718;28;20253;-77
2022/04/09 13:11:30;;;;;;;6.63;2.20;;;;;;;;;;5046799;28;20716;-76
2022/04/09 13:13:58;;;;;;;4.57;2.57;;;;;;;;;;5034987;28;20744;-77
2022/04/09 13:16:25;;;;;;;4.10;2.60;;;;;;;;;;5043666;28;20199;-77
2022/04/09 13:18:52;;;;;;;9.07;3.80;;;;;;;;;;5043603;28;20672;-77
2022/04/09 13:21:19;;;;;;;6.40;2.87;;;;;;;;;;5048730;28;20317;-78
2022/04/09 13:23:47;;;;;;;9.50;4.27;;;;;;;;;;5046143;28;20207;-78
2022/04/09 13:26:14;;;;;;;8.23;3.07;;;;;;;;;;5047877;28;20226;-78
2022/04/09 13:28:42;;;;;;;4.60;2.63;;;;;;;;;;5044934;28;20358;-78
2022/04/09 13:31:10;;;;;;;6.33;2.60;;;;;;;;;;5043190;28;20254;-78
2022/04/09 13:33:37;;;;;;;9.60;2.90;;;;;;;;;;5044998;28;20290;-78
2022/04/09 13:36:04;;;;;;;6.57;2.40;;;;;;;;;;5040910;28;20661;-79
2022/04/09 13:38:31;;;;;;;7.13;2.97;;;;;;;;;;5038887;28;20209;-78
2022/04/09 13:40:59;;;;;;;4.03;2.10;;;;;;;;;;5033690;28;20607;-77
2022/04/09 13:43:26;;;;;;;6.90;2.00;;;;;;;;;;5042732;28;20226;-78
2022/04/09 13:45:55;;;;;;;9.63;2.27;;;;;;;;;;5040809;28;20278;-80
2022/04/09 13:48:23;;;;;;;5.10;2.10;;;;;;;;;;5042909;28;20294;-80
2022/04/09 13:50:50;;;;;;;5.97;2.30;;;;;;;;;;5043614;28;20229;-79
2022/04/09 13:53:17;;;;;;;6.33;2.30;;;;;;;;;;5048323;28;20213;-79
2022/04/09 13:55:45;;;;;;;4.10;2.60;;;;;;;;;;5042669;28;20242;-80
2022/04/09 13:58:12;;;;;;;8.63;2.30;;;;;;;;;;5062661;28;20709;-78
2022/04/09 14:00:39;;;;;;;6.33;2.70;;;;;;;;;;5039343;28;20262;-79
2022/04/09 14:03:09;;;;;;;6.93;2.80;;;;;;;;;;5049244;28;20210;-79
2022/04/09 14:05:36;;;;;;;7.00;2.67;;;;;;;;;;5047517;28;20283;-78
2022/04/09 14:08:03;;;;;;;6.40;2.70;;;;;;;;;;5046936;28;20207;-80
2022/04/09 14:10:31;;;;;;;6.83;2.30;;;;;;;;;;5041450;28;20227;-80
2022/04/09 14:12:58;;;;;;;6.90;2.60;;;;;;;;;;5048505;28;20215;-80
2022/04/09 14:15:25;;;;;;;13.40;2.23;;;;;;;;;;5047756;28;20203;-80
2022/04/09 14:17:52;;;;;;;7.50;2.47;;;;;;;;;;5058449;28;20207;-79
2022/04/09 14:20:21;;;;;;;5.43;2.60;;;;;;;;;;5060599;28;20262;-78
2022/04/09 14:22:48;;;;;;;5.30;2.40;;;;;;;;;;5058133;28;20223;-79
2022/04/09 14:25:20;;;;;;;5.73;1.70;;;;;;;;;;5060225;28;20234;-79
2022/04/09 14:27:47;;;;;;;2.57;1.03;;;;;;;;;;5055325;28;20214;-79
2022/04/09 14:30:14;;;;;;;5.70;1.07;;;;;;;;;;5054082;28;20552;-79
2022/04/09 14:32:42;;;;;;;1.20;0.80;;;;;;;;;;5052055;28;20214;-79
2022/04/09 14:35:10;;;;;;;6.63;1.30;;;;;;;;;;5057580;28;20210;-77
2022/04/09 14:37:38;;;;;;;1.93;0.90;;;;;;;;;;5048716;28;20205;-79
2022/04/09 14:40:06;;;;;;;5.10;1.13;;;;;;;;;;5046114;28;20707;-78
2022/04/09 14:42:35;;;;;;;5.53;1.17;;;;;;;;;;5047799;28;20255;-78
2022/04/09 14:45:04;;;;;;;3.07;1.23;;;;;;;;;;5050114;28;20230;-79
2022/04/09 14:47:31;;;;;;;4.27;1.40;;;;;;;;;;5042801;28;20202;-79
2022/04/09 14:49:58;;;;;;;2.73;1.10;;;;;;;;;;5041909;28;20251;-78
2022/04/09 14:52:26;;;;;;;2.53;1.23;;;;;;;;;;5045487;28;20195;-77
2022/04/09 14:54:57;;;;;;;6.67;1.80;;;;;;;;;;5048863;28;20489;-79
2022/04/09 14:57:26;;;;;;;3.33;1.77;;;;;;;;;;5043257;28;20213;-79